sensor_id;sensor_type;location;lat;lon;timestamp;P1;durP1;ratioP1;P2;durP2;ratioP2
11646;SDS011;5880;52.342;9.662;2024-01-16T00:01:14;2.83;;;1.40;;
11646;SDS011;5880;52.342;9.662;2024-01-16T00:03:41;3.53;;;1.40;;
11646;SDS011;5880;52.342;9.662;2024-01-16T00:06:07;1.70;;;1.40;;
11646;SDS011;5880;52.342;9.662;2024-01-16T00:08:32;2.57;;;1.30;;
11646;SDS011;5880;52.342;9.662;2024-01-16T00:10:58;1.80;;;1.20;;
11646;SDS011;5880;52.342;9.662;2024-01-16T00:13:24;2.40;;;1.63;;
11646;SDS011;5880;52.342;9.662;2024-01-16T00:15:49;1.10;;;1.00;;
11646;SDS011;5880;52.342;9.662;2024-01-16T00:18:15;1.33;;;1.20;;
11646;SDS011;5880;52.342;9.662;2024-01-16T00:20:41;1.73;;;1.50;;
11646;SDS011;5880;52.342;9.662;2024-01-16T00:23:07;2.80;;;1.40;;
11646;SDS011;5880;52.342;9.662;2024-01-16T00:25:33;1.17;;;1.07;;
11646;SDS011;5880;52.342;9.662;2024-01-16T00:27:59;1.10;;;0.90;;
11646;SDS011;5880;52.342;9.662;2024-01-16T00:30:27;1.80;;;1.00;;
11646;SDS011;5880;52.342;9.662;2024-01-16T00:32:52;1.50;;;1.00;;
11646;SDS011;5880;52.342;9.662;2024-01-16T00:35:18;1.87;;;1.13;;
11646;SDS011;5880;52.342;9.662;2024-01-16T00:37:44;1.50;;;1.00;;
11646;SDS011;5880;52.342;9.662;2024-01-16T00:40:10;1.33;;;0.90;;
11646;SDS011;5880;52.342;9.662;2024-01-16T00:42:36;1.27;;;0.80;;
11646;SDS011;5880;52.342;9.662;2024-01-16T00:45:02;1.20;;;1.00;;
11646;SDS011;5880;52.342;9.662;2024-01-16T00:47:27;1.10;;;0.80;;
11646;SDS011;5880;52.342;9.662;2024-01-16T00:49:53;1.00;;;0.87;;
11646;SDS011;5880;52.342;9.662;2024-01-16T00:52:19;1.47;;;1.20;;
11646;SDS011;5880;52.342;9.662;2024-01-16T00:54:44;1.00;;;0.90;;
11646;SDS011;5880;52.342;9.662;2024-01-16T00:57:10;2.57;;;1.03;;
11646;SDS011;5880;52.342;9.662;2024-01-16T00:59:36;2.60;;;1.10;;
11646;SDS011;5880;52.342;9.662;2024-01-16T01:02:02;3.00;;;1.30;;
11646;SDS011;5880;52.342;9.662;2024-01-16T01:04:28;1.90;;;1.17;;
11646;SDS011;5880;52.342;9.662;2024-01-16T01:06:54;2.27;;;1.60;;
11646;SDS011;5880;52.342;9.662;2024-01-16T01:09:20;2.70;;;1.70;;
11646;SDS011;5880;52.342;9.662;2024-01-16T01:11:46;1.83;;;1.50;;
11646;SDS011;5880;52.342;9.662;2024-01-16T01:14:12;2.30;;;1.40;;
11646;SDS011;5880;52.342;9.662;2024-01-16T01:16:37;2.13;;;1.50;;
11646;SDS011;5880;52.342;9.662;2024-01-16T01:19:03;3.30;;;1.50;;
11646;SDS011;5880;52.342;9.662;2024-01-16T01:21:29;2.33;;;1.20;;
11646;SDS011;5880;52.342;9.662;2024-01-16T01:23:55;4.47;;;1.50;;
11646;SDS011;5880;52.342;9.662;2024-01-16T01:26:20;2.83;;;1.23;;
11646;SDS011;5880;52.342;9.662;2024-01-16T01:28:46;6.47;;;1.67;;
11646;SDS011;5880;52.342;9.662;2024-01-16T01:31:12;2.23;;;1.17;;
11646;SDS011;5880;52.342;9.662;2024-01-16T01:33:39;2.73;;;1.37;;
11646;SDS011;5880;52.342;9.662;2024-01-16T01:36:04;3.00;;;1.50;;
11646;SDS011;5880;52.342;9.662;2024-01-16T01:38:30;3.70;;;1.37;;
11646;SDS011;5880;52.342;9.662;2024-01-16T01:40:56;3.33;;;1.43;;
11646;SDS011;5880;52.342;9.662;2024-01-16T01:43:23;1.90;;;1.17;;
11646;SDS011;5880;52.342;9.662;2024-01-16T01:46:09;3.07;;;1.20;;
11646;SDS011;5880;52.342;9.662;2024-01-16T01:48:40;3.67;;;1.60;;
11646;SDS011;5880;52.342;9.662;2024-01-16T01:51:06;2.93;;;1.20;;
11646;SDS011;5880;52.342;9.662;2024-01-16T01:53:38;2.17;;;1.30;;
11646;SDS011;5880;52.342;9.662;2024-01-16T01:56:07;1.77;;;1.23;;
11646;SDS011;5880;52.342;9.662;2024-01-16T01:58:38;1.50;;;1.10;;
11646;SDS011;5880;52.342;9.662;2024-01-16T02:01:07;6.13;;;1.30;;
11646;SDS011;5880;52.342;9.662;2024-01-16T02:03:44;3.13;;;1.30;;
11646;SDS011;5880;52.342;9.662;2024-01-16T02:06:11;3.40;;;1.40;;
11646;SDS011;5880;52.342;9.662;2024-01-16T02:08:41;1.53;;;1.20;;
11646;SDS011;5880;52.342;9.662;2024-01-16T02:11:08;2.73;;;1.50;;
11646;SDS011;5880;52.342;9.662;2024-01-16T02:13:34;3.30;;;1.47;;
11646;SDS011;5880;52.342;9.662;2024-01-16T02:16:01;2.77;;;1.40;;
11646;SDS011;5880;52.342;9.662;2024-01-16T02:18:28;2.33;;;1.30;;
11646;SDS011;5880;52.342;9.662;2024-01-16T02:20:55;3.13;;;1.30;;
11646;SDS011;5880;52.342;9.662;2024-01-16T02:23:26;2.33;;;1.20;;
11646;SDS011;5880;52.342;9.662;2024-01-16T02:25:53;2.57;;;1.20;;
11646;SDS011;5880;52.342;9.662;2024-01-16T02:28:19;2.23;;;1.00;;
11646;SDS011;5880;52.342;9.662;2024-01-16T02:30:45;1.93;;;1.03;;
11646;SDS011;5880;52.342;9.662;2024-01-16T02:33:11;1.90;;;1.10;;
11646;SDS011;5880;52.342;9.662;2024-01-16T02:35:37;4.00;;;1.50;;
11646;SDS011;5880;52.342;9.662;2024-01-16T02:38:02;3.33;;;1.30;;
11646;SDS011;5880;52.342;9.662;2024-01-16T02:40:29;1.30;;;1.20;;
11646;SDS011;5880;52.342;9.662;2024-01-16T02:42:55;1.83;;;1.10;;
11646;SDS011;5880;52.342;9.662;2024-01-16T02:45:20;2.37;;;1.50;;
11646;SDS011;5880;52.342;9.662;2024-01-16T02:47:46;1.50;;;1.03;;
11646;SDS011;5880;52.342;9.662;2024-01-16T02:50:12;2.27;;;1.23;;
11646;SDS011;5880;52.342;9.662;2024-01-16T02:52:38;3.23;;;1.20;;
11646;SDS011;5880;52.342;9.662;2024-01-16T02:55:04;2.67;;;1.20;;
11646;SDS011;5880;52.342;9.662;2024-01-16T02:57:30;3.00;;;1.20;;
11646;SDS011;5880;52.342;9.662;2024-01-16T02:59:56;3.73;;;1.20;;
11646;SDS011;5880;52.342;9.662;2024-01-16T03:02:22;3.93;;;1.23;;
11646;SDS011;5880;52.342;9.662;2024-01-16T03:04:48;3.43;;;1.43;;
11646;SDS011;5880;52.342;9.662;2024-01-16T03:07:15;2.17;;;1.30;;
11646;SDS011;5880;52.342;9.662;2024-01-16T03:09:41;4.53;;;1.60;;
11646;SDS011;5880;52.342;9.662;2024-01-16T03:12:06;4.70;;;1.83;;
11646;SDS011;5880;52.342;9.662;2024-01-16T03:14:32;4.17;;;1.53;;
11646;SDS011;5880;52.342;9.662;2024-01-16T03:17:02;2.43;;;1.60;;
11646;SDS011;5880;52.342;9.662;2024-01-16T03:19:28;3.87;;;2.07;;
11646;SDS011;5880;52.342;9.662;2024-01-16T03:21:54;2.60;;;1.87;;
11646;SDS011;5880;52.342;9.662;2024-01-16T03:24:19;2.83;;;1.70;;
11646;SDS011;5880;52.342;9.662;2024-01-16T03:26:45;5.47;;;1.90;;
11646;SDS011;5880;52.342;9.662;2024-01-16T03:29:11;3.60;;;1.73;;
11646;SDS011;5880;52.342;9.662;2024-01-16T03:31:37;4.23;;;1.80;;
11646;SDS011;5880;52.342;9.662;2024-01-16T03:34:02;3.97;;;1.73;;
11646;SDS011;5880;52.342;9.662;2024-01-16T03:36:28;4.73;;;1.70;;
11646;SDS011;5880;52.342;9.662;2024-01-16T03:38:53;6.17;;;2.17;;
11646;SDS011;5880;52.342;9.662;2024-01-16T03:41:19;4.27;;;1.60;;
11646;SDS011;5880;52.342;9.662;2024-01-16T03:43:45;2.80;;;1.43;;
11646;SDS011;5880;52.342;9.662;2024-01-16T03:46:11;3.20;;;1.30;;
11646;SDS011;5880;52.342;9.662;2024-01-16T03:48:36;3.30;;;1.43;;
11646;SDS011;5880;52.342;9.662;2024-01-16T03:51:02;2.50;;;1.33;;
11646;SDS011;5880;52.342;9.662;2024-01-16T03:53:28;2.30;;;1.33;;
11646;SDS011;5880;52.342;9.662;2024-01-16T03:55:54;3.30;;;1.70;;
11646;SDS011;5880;52.342;9.662;2024-01-16T03:58:19;3.20;;;1.87;;
11646;SDS011;5880;52.342;9.662;2024-01-16T04:00:45;4.13;;;1.30;;
11646;SDS011;5880;52.342;9.662;2024-01-16T04:03:11;2.40;;;1.30;;
11646;SDS011;5880;52.342;9.662;2024-01-16T04:05:38;3.80;;;1.80;;
11646;SDS011;5880;52.342;9.662;2024-01-16T04:08:03;2.87;;;1.37;;
11646;SDS011;5880;52.342;9.662;2024-01-16T04:10:29;4.77;;;1.50;;
11646;SDS011;5880;52.342;9.662;2024-01-16T04:12:55;3.10;;;1.47;;
11646;SDS011;5880;52.342;9.662;2024-01-16T04:15:20;3.87;;;1.27;;
11646;SDS011;5880;52.342;9.662;2024-01-16T04:17:47;4.23;;;1.23;;
11646;SDS011;5880;52.342;9.662;2024-01-16T04:20:13;2.60;;;1.23;;
11646;SDS011;5880;52.342;9.662;2024-01-16T04:22:39;4.63;;;1.90;;
11646;SDS011;5880;52.342;9.662;2024-01-16T04:25:05;3.17;;;1.30;;
11646;SDS011;5880;52.342;9.662;2024-01-16T04:27:31;2.80;;;1.23;;
11646;SDS011;5880;52.342;9.662;2024-01-16T04:29:57;4.87;;;1.63;;
11646;SDS011;5880;52.342;9.662;2024-01-16T04:32:23;2.27;;;1.50;;
11646;SDS011;5880;52.342;9.662;2024-01-16T04:34:49;4.53;;;1.43;;
11646;SDS011;5880;52.342;9.662;2024-01-16T04:37:14;2.47;;;1.17;;
11646;SDS011;5880;52.342;9.662;2024-01-16T04:39:40;4.87;;;1.60;;
11646;SDS011;5880;52.342;9.662;2024-01-16T04:42:06;5.60;;;1.30;;
11646;SDS011;5880;52.342;9.662;2024-01-16T04:44:31;4.50;;;1.50;;
11646;SDS011;5880;52.342;9.662;2024-01-16T04:46:57;5.23;;;1.40;;
11646;SDS011;5880;52.342;9.662;2024-01-16T04:49:22;4.60;;;1.67;;
11646;SDS011;5880;52.342;9.662;2024-01-16T04:51:48;5.10;;;1.40;;
11646;SDS011;5880;52.342;9.662;2024-01-16T04:54:14;2.17;;;1.20;;
11646;SDS011;5880;52.342;9.662;2024-01-16T04:56:40;4.53;;;1.60;;
11646;SDS011;5880;52.342;9.662;2024-01-16T04:59:06;4.10;;;1.30;;
11646;SDS011;5880;52.342;9.662;2024-01-16T05:01:32;3.03;;;1.40;;
11646;SDS011;5880;52.342;9.662;2024-01-16T05:03:57;4.90;;;1.43;;
11646;SDS011;5880;52.342;9.662;2024-01-16T05:06:23;3.63;;;1.50;;
11646;SDS011;5880;52.342;9.662;2024-01-16T05:08:49;4.87;;;1.63;;
11646;SDS011;5880;52.342;9.662;2024-01-16T05:11:15;4.20;;;1.70;;
11646;SDS011;5880;52.342;9.662;2024-01-16T05:13:40;4.40;;;1.50;;
11646;SDS011;5880;52.342;9.662;2024-01-16T05:16:06;2.33;;;1.27;;
11646;SDS011;5880;52.342;9.662;2024-01-16T05:18:33;4.43;;;1.93;;
11646;SDS011;5880;52.342;9.662;2024-01-16T05:20:58;3.63;;;1.40;;
11646;SDS011;5880;52.342;9.662;2024-01-16T05:23:24;3.70;;;1.53;;
11646;SDS011;5880;52.342;9.662;2024-01-16T05:25:50;3.10;;;1.40;;
11646;SDS011;5880;52.342;9.662;2024-01-16T05:28:16;3.67;;;1.80;;
11646;SDS011;5880;52.342;9.662;2024-01-16T05:30:41;4.97;;;2.33;;
11646;SDS011;5880;52.342;9.662;2024-01-16T05:33:07;3.23;;;1.50;;
11646;SDS011;5880;52.342;9.662;2024-01-16T05:35:33;3.97;;;1.50;;
11646;SDS011;5880;52.342;9.662;2024-01-16T05:37:59;4.27;;;1.80;;
11646;SDS011;5880;52.342;9.662;2024-01-16T05:40:25;4.97;;;1.70;;
11646;SDS011;5880;52.342;9.662;2024-01-16T05:42:51;4.80;;;1.80;;
11646;SDS011;5880;52.342;9.662;2024-01-16T05:45:17;4.87;;;1.90;;
11646;SDS011;5880;52.342;9.662;2024-01-16T05:47:43;2.87;;;1.70;;
11646;SDS011;5880;52.342;9.662;2024-01-16T05:50:08;5.60;;;2.10;;
11646;SDS011;5880;52.342;9.662;2024-01-16T05:52:35;4.77;;;2.27;;
11646;SDS011;5880;52.342;9.662;2024-01-16T05:55:01;3.37;;;1.87;;
11646;SDS011;5880;52.342;9.662;2024-01-16T05:57:29;6.50;;;2.00;;
11646;SDS011;5880;52.342;9.662;2024-01-16T05:59:58;5.90;;;2.40;;
11646;SDS011;5880;52.342;9.662;2024-01-16T06:02:24;4.33;;;2.17;;
11646;SDS011;5880;52.342;9.662;2024-01-16T06:04:50;3.17;;;1.80;;
11646;SDS011;5880;52.342;9.662;2024-01-16T06:07:16;4.33;;;2.20;;
11646;SDS011;5880;52.342;9.662;2024-01-16T06:09:41;2.53;;;1.70;;
11646;SDS011;5880;52.342;9.662;2024-01-16T06:12:08;3.77;;;1.80;;
11646;SDS011;5880;52.342;9.662;2024-01-16T06:14:34;3.40;;;2.00;;
11646;SDS011;5880;52.342;9.662;2024-01-16T06:16:59;3.50;;;1.70;;
11646;SDS011;5880;52.342;9.662;2024-01-16T06:19:26;4.43;;;2.00;;
11646;SDS011;5880;52.342;9.662;2024-01-16T06:21:51;3.40;;;1.90;;
11646;SDS011;5880;52.342;9.662;2024-01-16T06:24:18;3.40;;;2.37;;
11646;SDS011;5880;52.342;9.662;2024-01-16T06:26:43;3.77;;;2.30;;
11646;SDS011;5880;52.342;9.662;2024-01-16T06:29:09;4.17;;;2.00;;
11646;SDS011;5880;52.342;9.662;2024-01-16T06:31:35;3.23;;;2.10;;
11646;SDS011;5880;52.342;9.662;2024-01-16T06:34:00;6.17;;;2.37;;
11646;SDS011;5880;52.342;9.662;2024-01-16T06:36:26;4.10;;;2.30;;
11646;SDS011;5880;52.342;9.662;2024-01-16T06:38:52;5.17;;;2.60;;
11646;SDS011;5880;52.342;9.662;2024-01-16T06:41:18;2.97;;;2.40;;
11646;SDS011;5880;52.342;9.662;2024-01-16T06:43:43;5.27;;;2.63;;
11646;SDS011;5880;52.342;9.662;2024-01-16T06:46:09;5.40;;;2.70;;
11646;SDS011;5880;52.342;9.662;2024-01-16T06:48:35;4.50;;;2.60;;
11646;SDS011;5880;52.342;9.662;2024-01-16T06:51:02;5.03;;;2.57;;
11646;SDS011;5880;52.342;9.662;2024-01-16T06:53:29;4.23;;;2.60;;
11646;SDS011;5880;52.342;9.662;2024-01-16T06:55:55;6.50;;;2.90;;
11646;SDS011;5880;52.342;9.662;2024-01-16T06:58:20;6.53;;;3.63;;
11646;SDS011;5880;52.342;9.662;2024-01-16T07:00:47;5.40;;;2.93;;
11646;SDS011;5880;52.342;9.662;2024-01-16T07:03:13;6.33;;;2.97;;
11646;SDS011;5880;52.342;9.662;2024-01-16T07:05:39;5.40;;;3.03;;
11646;SDS011;5880;52.342;9.662;2024-01-16T07:08:09;4.73;;;2.90;;
11646;SDS011;5880;52.342;9.662;2024-01-16T07:10:35;4.93;;;3.00;;
11646;SDS011;5880;52.342;9.662;2024-01-16T07:13:01;4.90;;;2.90;;
11646;SDS011;5880;52.342;9.662;2024-01-16T07:15:27;4.50;;;2.90;;
11646;SDS011;5880;52.342;9.662;2024-01-16T07:17:53;4.53;;;2.80;;
11646;SDS011;5880;52.342;9.662;2024-01-16T07:20:19;5.50;;;3.20;;
11646;SDS011;5880;52.342;9.662;2024-01-16T07:22:45;6.10;;;3.03;;
11646;SDS011;5880;52.342;9.662;2024-01-16T07:25:11;4.47;;;3.00;;
11646;SDS011;5880;52.342;9.662;2024-01-16T07:27:37;5.73;;;2.80;;
11646;SDS011;5880;52.342;9.662;2024-01-16T07:30:06;4.80;;;3.00;;
11646;SDS011;5880;52.342;9.662;2024-01-16T07:32:32;4.57;;;2.83;;
11646;SDS011;5880;52.342;9.662;2024-01-16T07:34:58;4.43;;;2.90;;
11646;SDS011;5880;52.342;9.662;2024-01-16T07:37:24;5.03;;;2.80;;
11646;SDS011;5880;52.342;9.662;2024-01-16T07:39:50;5.57;;;3.00;;
11646;SDS011;5880;52.342;9.662;2024-01-16T07:42:15;4.23;;;3.00;;
11646;SDS011;5880;52.342;9.662;2024-01-16T07:44:41;5.33;;;3.10;;
11646;SDS011;5880;52.342;9.662;2024-01-16T07:47:07;5.33;;;3.10;;
11646;SDS011;5880;52.342;9.662;2024-01-16T07:49:33;6.47;;;3.13;;
11646;SDS011;5880;52.342;9.662;2024-01-16T07:51:59;5.00;;;3.20;;
11646;SDS011;5880;52.342;9.662;2024-01-16T07:54:25;4.70;;;2.90;;
11646;SDS011;5880;52.342;9.662;2024-01-16T07:56:52;4.50;;;3.17;;
11646;SDS011;5880;52.342;9.662;2024-01-16T07:59:17;7.80;;;3.53;;
11646;SDS011;5880;52.342;9.662;2024-01-16T08:01:43;6.03;;;3.13;;
11646;SDS011;5880;52.342;9.662;2024-01-16T08:04:09;5.27;;;2.90;;
11646;SDS011;5880;52.342;9.662;2024-01-16T08:06:35;4.23;;;3.20;;
11646;SDS011;5880;52.342;9.662;2024-01-16T08:09:00;7.43;;;3.20;;
11646;SDS011;5880;52.342;9.662;2024-01-16T08:11:26;7.10;;;3.47;;
11646;SDS011;5880;52.342;9.662;2024-01-16T08:13:52;5.17;;;3.50;;
11646;SDS011;5880;52.342;9.662;2024-01-16T08:16:17;5.77;;;3.60;;
11646;SDS011;5880;52.342;9.662;2024-01-16T08:18:43;5.53;;;3.07;;
11646;SDS011;5880;52.342;9.662;2024-01-16T08:21:08;6.07;;;3.60;;
11646;SDS011;5880;52.342;9.662;2024-01-16T08:23:34;6.17;;;3.40;;
11646;SDS011;5880;52.342;9.662;2024-01-16T08:26:00;8.77;;;3.60;;
11646;SDS011;5880;52.342;9.662;2024-01-16T08:28:26;4.40;;;3.53;;
11646;SDS011;5880;52.342;9.662;2024-01-16T08:30:52;4.37;;;3.30;;
11646;SDS011;5880;52.342;9.662;2024-01-16T08:33:17;4.87;;;3.47;;
11646;SDS011;5880;52.342;9.662;2024-01-16T08:35:44;6.50;;;3.83;;
11646;SDS011;5880;52.342;9.662;2024-01-16T08:38:09;8.83;;;3.90;;
11646;SDS011;5880;52.342;9.662;2024-01-16T08:40:35;7.10;;;4.23;;
11646;SDS011;5880;52.342;9.662;2024-01-16T08:43:01;7.23;;;4.27;;
11646;SDS011;5880;52.342;9.662;2024-01-16T08:45:28;6.40;;;4.60;;
11646;SDS011;5880;52.342;9.662;2024-01-16T08:47:54;7.13;;;4.07;;
11646;SDS011;5880;52.342;9.662;2024-01-16T08:50:20;7.97;;;4.33;;
11646;SDS011;5880;52.342;9.662;2024-01-16T08:52:46;7.60;;;3.97;;
11646;SDS011;5880;52.342;9.662;2024-01-16T08:55:11;5.27;;;4.40;;
11646;SDS011;5880;52.342;9.662;2024-01-16T08:57:37;5.13;;;4.13;;
11646;SDS011;5880;52.342;9.662;2024-01-16T09:00:04;5.53;;;4.10;;
11646;SDS011;5880;52.342;9.662;2024-01-16T09:02:30;6.87;;;4.23;;
11646;SDS011;5880;52.342;9.662;2024-01-16T09:04:56;7.67;;;4.10;;
11646;SDS011;5880;52.342;9.662;2024-01-16T09:07:23;6.57;;;4.23;;
11646;SDS011;5880;52.342;9.662;2024-01-16T09:09:50;6.73;;;4.53;;
11646;SDS011;5880;52.342;9.662;2024-01-16T09:12:15;5.43;;;4.20;;
11646;SDS011;5880;52.342;9.662;2024-01-16T09:14:41;7.87;;;4.30;;
11646;SDS011;5880;52.342;9.662;2024-01-16T09:17:07;7.47;;;4.07;;
11646;SDS011;5880;52.342;9.662;2024-01-16T09:19:32;6.17;;;3.87;;
11646;SDS011;5880;52.342;9.662;2024-01-16T09:21:58;5.33;;;3.80;;
11646;SDS011;5880;52.342;9.662;2024-01-16T09:24:23;6.53;;;4.07;;
11646;SDS011;5880;52.342;9.662;2024-01-16T09:26:49;5.83;;;3.97;;
11646;SDS011;5880;52.342;9.662;2024-01-16T09:29:15;5.90;;;4.10;;
11646;SDS011;5880;52.342;9.662;2024-01-16T09:31:41;5.50;;;3.77;;
11646;SDS011;5880;52.342;9.662;2024-01-16T09:34:07;6.03;;;3.87;;
11646;SDS011;5880;52.342;9.662;2024-01-16T09:36:33;6.97;;;4.20;;
11646;SDS011;5880;52.342;9.662;2024-01-16T09:39:02;5.20;;;3.83;;
11646;SDS011;5880;52.342;9.662;2024-01-16T09:41:34;7.77;;;4.57;;
11646;SDS011;5880;52.342;9.662;2024-01-16T09:44:00;4.70;;;3.47;;
11646;SDS011;5880;52.342;9.662;2024-01-16T09:46:26;6.77;;;3.93;;
11646;SDS011;5880;52.342;9.662;2024-01-16T09:48:54;5.83;;;3.70;;
11646;SDS011;5880;52.342;9.662;2024-01-16T09:51:21;6.70;;;4.13;;
11646;SDS011;5880;52.342;9.662;2024-01-16T09:53:47;6.97;;;4.00;;
11646;SDS011;5880;52.342;9.662;2024-01-16T09:56:16;8.63;;;4.60;;
11646;SDS011;5880;52.342;9.662;2024-01-16T09:58:55;6.50;;;3.83;;
11646;SDS011;5880;52.342;9.662;2024-01-16T10:01:29;5.50;;;3.60;;
11646;SDS011;5880;52.342;9.662;2024-01-16T10:03:55;5.50;;;3.70;;
11646;SDS011;5880;52.342;9.662;2024-01-16T10:06:21;5.70;;;3.40;;
11646;SDS011;5880;52.342;9.662;2024-01-16T10:08:49;6.10;;;3.70;;
11646;SDS011;5880;52.342;9.662;2024-01-16T10:11:14;6.43;;;4.20;;
11646;SDS011;5880;52.342;9.662;2024-01-16T10:13:40;7.53;;;4.23;;
11646;SDS011;5880;52.342;9.662;2024-01-16T10:16:06;5.77;;;3.87;;
11646;SDS011;5880;52.342;9.662;2024-01-16T10:18:32;5.53;;;3.67;;
11646;SDS011;5880;52.342;9.662;2024-01-16T10:20:59;6.30;;;3.80;;
11646;SDS011;5880;52.342;9.662;2024-01-16T10:23:25;5.60;;;3.50;;
11646;SDS011;5880;52.342;9.662;2024-01-16T10:26:06;6.60;;;3.43;;
11646;SDS011;5880;52.342;9.662;2024-01-16T10:28:32;5.50;;;3.87;;
11646;SDS011;5880;52.342;9.662;2024-01-16T10:31:12;6.37;;;3.80;;
11646;SDS011;5880;52.342;9.662;2024-01-16T10:33:41;5.40;;;3.60;;
11646;SDS011;5880;52.342;9.662;2024-01-16T10:36:11;5.47;;;3.23;;
11646;SDS011;5880;52.342;9.662;2024-01-16T10:38:41;4.57;;;3.60;;
11646;SDS011;5880;52.342;9.662;2024-01-16T10:41:12;5.13;;;3.60;;
11646;SDS011;5880;52.342;9.662;2024-01-16T10:43:42;4.97;;;2.93;;
11646;SDS011;5880;52.342;9.662;2024-01-16T10:46:12;6.20;;;3.57;;
11646;SDS011;5880;52.342;9.662;2024-01-16T10:48:41;6.13;;;3.60;;
11646;SDS011;5880;52.342;9.662;2024-01-16T10:51:10;6.27;;;4.00;;
11646;SDS011;5880;52.342;9.662;2024-01-16T10:53:41;6.53;;;3.87;;
11646;SDS011;5880;52.342;9.662;2024-01-16T10:56:11;5.97;;;3.67;;
11646;SDS011;5880;52.342;9.662;2024-01-16T10:58:41;4.00;;;3.30;;
11646;SDS011;5880;52.342;9.662;2024-01-16T11:01:11;5.20;;;3.37;;
11646;SDS011;5880;52.342;9.662;2024-01-16T11:03:47;5.40;;;3.63;;
11646;SDS011;5880;52.342;9.662;2024-01-16T11:06:15;3.80;;;3.33;;
11646;SDS011;5880;52.342;9.662;2024-01-16T11:08:44;4.17;;;3.23;;
11646;SDS011;5880;52.342;9.662;2024-01-16T11:11:12;5.10;;;3.90;;
11646;SDS011;5880;52.342;9.662;2024-01-16T11:13:39;5.40;;;3.47;;
11646;SDS011;5880;52.342;9.662;2024-01-16T11:16:10;6.00;;;3.60;;
11646;SDS011;5880;52.342;9.662;2024-01-16T11:18:36;5.97;;;3.57;;
11646;SDS011;5880;52.342;9.662;2024-01-16T11:21:06;5.00;;;3.20;;
11646;SDS011;5880;52.342;9.662;2024-01-16T11:23:38;5.90;;;3.43;;
11646;SDS011;5880;52.342;9.662;2024-01-16T11:28:54;4.80;;;3.17;;
11646;SDS011;5880;52.342;9.662;2024-01-16T11:31:34;5.77;;;3.03;;
11646;SDS011;5880;52.342;9.662;2024-01-16T11:34:01;4.47;;;3.40;;
11646;SDS011;5880;52.342;9.662;2024-01-16T11:39:22;4.50;;;2.67;;
11646;SDS011;5880;52.342;9.662;2024-01-16T11:44:42;4.10;;;2.70;;
11646;SDS011;5880;52.342;9.662;2024-01-16T11:47:16;5.63;;;2.80;;
11646;SDS011;5880;52.342;9.662;2024-01-16T11:49:44;6.97;;;2.80;;
11646;SDS011;5880;52.342;9.662;2024-01-16T11:52:10;3.60;;;2.90;;
11646;SDS011;5880;52.342;9.662;2024-01-16T11:54:37;4.50;;;3.20;;
11646;SDS011;5880;52.342;9.662;2024-01-16T12:00:03;4.37;;;3.30;;
11646;SDS011;5880;52.342;9.662;2024-01-16T12:02:52;4.17;;;3.03;;
11646;SDS011;5880;52.342;9.662;2024-01-16T12:05:21;3.60;;;2.73;;
11646;SDS011;5880;52.342;9.662;2024-01-16T12:07:51;4.87;;;2.97;;
11646;SDS011;5880;52.342;9.662;2024-01-16T12:10:22;4.67;;;3.40;;
11646;SDS011;5880;52.342;9.662;2024-01-16T12:12:50;6.73;;;3.50;;
11646;SDS011;5880;52.342;9.662;2024-01-16T12:15:22;5.97;;;3.67;;
11646;SDS011;5880;52.342;9.662;2024-01-16T12:20:25;7.43;;;3.50;;
11646;SDS011;5880;52.342;9.662;2024-01-16T12:22:55;6.30;;;3.30;;
11646;SDS011;5880;52.342;9.662;2024-01-16T12:25:30;3.97;;;2.90;;
11646;SDS011;5880;52.342;9.662;2024-01-16T12:27:59;4.93;;;3.70;;
11646;SDS011;5880;52.342;9.662;2024-01-16T12:30:35;5.83;;;3.67;;
11646;SDS011;5880;52.342;9.662;2024-01-16T12:35:31;6.37;;;3.90;;
11646;SDS011;5880;52.342;9.662;2024-01-16T12:38:05;7.53;;;4.30;;
11646;SDS011;5880;52.342;9.662;2024-01-16T12:40:42;6.33;;;4.30;;
11646;SDS011;5880;52.342;9.662;2024-01-16T12:43:15;4.27;;;3.67;;
11646;SDS011;5880;52.342;9.662;2024-01-16T12:45:43;5.43;;;3.90;;
11646;SDS011;5880;52.342;9.662;2024-01-16T12:48:09;5.23;;;3.87;;
11646;SDS011;5880;52.342;9.662;2024-01-16T12:50:36;4.93;;;4.07;;
11646;SDS011;5880;52.342;9.662;2024-01-16T12:53:03;6.67;;;4.33;;
11646;SDS011;5880;52.342;9.662;2024-01-16T12:55:37;7.60;;;4.63;;
11646;SDS011;5880;52.342;9.662;2024-01-16T12:58:20;6.97;;;4.50;;
11646;SDS011;5880;52.342;9.662;2024-01-16T13:00:52;7.30;;;4.30;;
11646;SDS011;5880;52.342;9.662;2024-01-16T13:03:19;7.73;;;4.33;;
11646;SDS011;5880;52.342;9.662;2024-01-16T13:05:56;7.80;;;4.67;;
11646;SDS011;5880;52.342;9.662;2024-01-16T13:08:26;5.97;;;4.73;;
11646;SDS011;5880;52.342;9.662;2024-01-16T13:11:02;6.60;;;4.70;;
11646;SDS011;5880;52.342;9.662;2024-01-16T13:13:32;5.43;;;4.20;;
11646;SDS011;5880;52.342;9.662;2024-01-16T13:15:59;7.20;;;5.37;;
11646;SDS011;5880;52.342;9.662;2024-01-16T13:18:26;7.70;;;5.33;;
11646;SDS011;5880;52.342;9.662;2024-01-16T13:20:55;8.87;;;5.47;;
11646;SDS011;5880;52.342;9.662;2024-01-16T13:23:23;8.50;;;6.40;;
11646;SDS011;5880;52.342;9.662;2024-01-16T13:25:52;7.67;;;5.77;;
11646;SDS011;5880;52.342;9.662;2024-01-16T13:28:25;8.90;;;6.10;;
11646;SDS011;5880;52.342;9.662;2024-01-16T13:30:51;7.43;;;5.73;;
11646;SDS011;5880;52.342;9.662;2024-01-16T13:33:17;11.13;;;7.20;;
11646;SDS011;5880;52.342;9.662;2024-01-16T13:35:46;8.73;;;6.73;;
11646;SDS011;5880;52.342;9.662;2024-01-16T13:38:13;10.73;;;7.30;;
11646;SDS011;5880;52.342;9.662;2024-01-16T13:40:42;9.73;;;7.20;;
11646;SDS011;5880;52.342;9.662;2024-01-16T13:43:07;14.17;;;8.53;;
11646;SDS011;5880;52.342;9.662;2024-01-16T13:45:33;14.13;;;8.37;;
11646;SDS011;5880;52.342;9.662;2024-01-16T13:48:00;12.07;;;7.90;;
11646;SDS011;5880;52.342;9.662;2024-01-16T13:50:27;11.70;;;7.40;;
11646;SDS011;5880;52.342;9.662;2024-01-16T13:52:53;10.30;;;8.27;;
11646;SDS011;5880;52.342;9.662;2024-01-16T13:55:19;12.27;;;8.80;;
11646;SDS011;5880;52.342;9.662;2024-01-16T13:57:45;12.00;;;8.13;;
11646;SDS011;5880;52.342;9.662;2024-01-16T14:00:12;13.23;;;8.47;;
11646;SDS011;5880;52.342;9.662;2024-01-16T14:02:40;10.67;;;7.87;;
11646;SDS011;5880;52.342;9.662;2024-01-16T14:05:17;11.77;;;8.60;;
11646;SDS011;5880;52.342;9.662;2024-01-16T14:07:44;9.87;;;7.40;;
11646;SDS011;5880;52.342;9.662;2024-01-16T14:10:13;11.70;;;8.33;;
11646;SDS011;5880;52.342;9.662;2024-01-16T14:12:39;10.20;;;7.40;;
11646;SDS011;5880;52.342;9.662;2024-01-16T14:15:13;10.77;;;8.27;;
11646;SDS011;5880;52.342;9.662;2024-01-16T14:17:45;12.83;;;8.00;;
11646;SDS011;5880;52.342;9.662;2024-01-16T14:20:22;10.77;;;7.47;;
11646;SDS011;5880;52.342;9.662;2024-01-16T14:22:50;9.33;;;7.50;;
11646;SDS011;5880;52.342;9.662;2024-01-16T14:25:19;9.57;;;7.23;;
11646;SDS011;5880;52.342;9.662;2024-01-16T14:27:48;10.67;;;7.63;;
11646;SDS011;5880;52.342;9.662;2024-01-16T14:30:23;8.93;;;7.20;;
11646;SDS011;5880;52.342;9.662;2024-01-16T14:32:50;10.13;;;7.50;;
11646;SDS011;5880;52.342;9.662;2024-01-16T14:35:16;9.40;;;7.57;;
11646;SDS011;5880;52.342;9.662;2024-01-16T14:37:42;8.33;;;6.60;;
11646;SDS011;5880;52.342;9.662;2024-01-16T14:40:10;11.57;;;7.23;;
11646;SDS011;5880;52.342;9.662;2024-01-16T14:42:45;8.43;;;6.73;;
11646;SDS011;5880;52.342;9.662;2024-01-16T14:45:16;12.43;;;6.97;;
11646;SDS011;5880;52.342;9.662;2024-01-16T14:47:43;8.47;;;6.60;;
11646;SDS011;5880;52.342;9.662;2024-01-16T14:50:10;9.27;;;6.63;;
11646;SDS011;5880;52.342;9.662;2024-01-16T14:52:38;9.80;;;6.30;;
11646;SDS011;5880;52.342;9.662;2024-01-16T14:55:05;7.97;;;6.63;;
11646;SDS011;5880;52.342;9.662;2024-01-16T14:57:34;9.10;;;6.53;;
11646;SDS011;5880;52.342;9.662;2024-01-16T15:00:06;8.10;;;6.13;;
11646;SDS011;5880;52.342;9.662;2024-01-16T15:02:43;8.43;;;6.00;;
11646;SDS011;5880;52.342;9.662;2024-01-16T15:05:09;8.53;;;5.57;;
11646;SDS011;5880;52.342;9.662;2024-01-16T15:07:35;8.20;;;5.70;;
11646;SDS011;5880;52.342;9.662;2024-01-16T15:10:02;7.90;;;5.50;;
11646;SDS011;5880;52.342;9.662;2024-01-16T15:12:30;7.63;;;5.50;;
11646;SDS011;5880;52.342;9.662;2024-01-16T15:14:56;5.97;;;4.77;;
11646;SDS011;5880;52.342;9.662;2024-01-16T15:17:22;6.00;;;4.57;;